createdAt,value
2022-11-30T00:00:12.031Z,-1.07
2022-11-30T00:10:40.972Z,-1.07
2022-11-30T00:20:48.202Z,-1.03
2022-11-30T00:30:58.951Z,-1.02
2022-11-30T00:41:06.590Z,-1.19
2022-11-30T00:51:14.609Z,-1.29
2022-11-30T01:01:21.832Z,-1.29
2022-11-30T01:11:31.602Z,-1.31
2022-11-30T01:21:37.118Z,-1.29
2022-11-30T01:31:44.498Z,-1.24
2022-11-30T01:41:51.488Z,-1.27
2022-11-30T01:52:04.120Z,-1.39
2022-11-30T02:02:11.658Z,-1.36
2022-11-30T02:12:17.336Z,-1.36
2022-11-30T02:22:25.468Z,-1.34
2022-11-30T02:32:37.809Z,-1.31
2022-11-30T02:42:44.250Z,-1.41
2022-11-30T02:52:50.357Z,-1.53
2022-11-30T03:02:57.734Z,-1.57
2022-11-30T03:13:05.208Z,-1.49
2022-11-30T03:23:12.870Z,-1.40
2022-11-30T03:33:20.237Z,-1.47
2022-11-30T03:43:27.366Z,-1.58
2022-11-30T03:53:35.575Z,-1.65
2022-11-30T04:03:43.834Z,-1.62
2022-11-30T04:13:51.028Z,-1.61
2022-11-30T04:23:58.218Z,-1.53
2022-11-30T04:34:05.466Z,-1.63
2022-11-30T04:44:12.542Z,-1.72
2022-11-30T04:54:19.837Z,-1.70
2022-11-30T05:04:27.136Z,-1.63
2022-11-30T05:14:34.431Z,-1.57
2022-11-30T05:24:41.893Z,-1.60
2022-11-30T05:34:51.609Z,-1.60
2022-11-30T05:44:59.186Z,-1.59
2022-11-30T05:55:05.053Z,-1.58
2022-11-30T06:15:19.086Z,-1.58
2022-11-30T06:25:26.807Z,-1.53
2022-11-30T06:35:34.031Z,-1.51
2022-11-30T06:55:48.022Z,-1.54
2022-11-30T07:05:55.436Z,-1.57
2022-11-30T07:16:03.976Z,-1.53
2022-11-30T07:26:09.740Z,-1.53
2022-11-30T07:36:17.875Z,-1.53
2022-11-30T07:46:25.001Z,-1.58
2022-11-30T07:56:32.220Z,-1.60
2022-11-30T08:06:39.676Z,-1.53
2022-11-30T08:16:48.178Z,-1.45
2022-11-30T08:26:55.824Z,-1.38
2022-11-30T08:37:03.054Z,-1.42
2022-11-30T08:47:10.301Z,-1.42
2022-11-30T08:57:17.715Z,-1.48
2022-11-30T09:07:25.574Z,-1.43
2022-11-30T09:17:33.690Z,-1.29
2022-11-30T09:27:41.284Z,-1.27
2022-11-30T09:37:48.463Z,-1.34
2022-11-30T09:58:23.154Z,-1.32
2022-11-30T10:18:46.424Z,-1.33
2022-11-30T10:28:53.411Z,-1.33
2022-11-30T10:39:04.086Z,-1.33
2022-11-30T10:49:18.525Z,-1.32
2022-11-30T10:59:26.411Z,-1.20
2022-11-30T11:09:36.273Z,-1.17
2022-11-30T11:19:45.390Z,-1.29
2022-11-30T11:29:59.351Z,-1.28
2022-11-30T11:40:05.556Z,-1.14
2022-11-30T11:51:05.117Z,-1.16
2022-11-30T12:01:31.091Z,-1.19
2022-11-30T12:11:33.173Z,-1.15
2022-11-30T12:21:40.534Z,-1.12
2022-11-30T12:31:54.297Z,-1.08
2022-11-30T12:41:59.463Z,-1.10
2022-11-30T12:52:10.182Z,-1.21
2022-11-30T13:02:37.022Z,-1.23
2022-11-30T13:12:42.896Z,-1.33
2022-11-30T13:22:57.563Z,-1.35
2022-11-30T13:33:35.254Z,-1.32
2022-11-30T13:43:41.469Z,-1.39
2022-11-30T13:53:48.704Z,-1.36
2022-11-30T14:04:34.585Z,-1.36
2022-11-30T14:14:47.006Z,-1.49
2022-11-30T14:24:56.767Z,-1.54
2022-11-30T14:35:02.610Z,-1.46
2022-11-30T14:45:15.707Z,-1.49
2022-11-30T14:55:22.275Z,-1.56
2022-11-30T15:05:33.166Z,-1.60
2022-11-30T15:15:41.844Z,-1.56
2022-11-30T15:25:48.942Z,-1.53
2022-11-30T15:36:18.849Z,-1.58
2022-11-30T15:46:29.733Z,-1.53
2022-11-30T15:56:37.348Z,-1.49
2022-11-30T16:06:47.972Z,-1.46
2022-11-30T16:16:55.502Z,-1.46
2022-11-30T16:27:03.828Z,-1.53
2022-11-30T16:37:09.431Z,-1.53
2022-11-30T16:47:16.681Z,-1.47
2022-11-30T16:57:23.865Z,-1.42
2022-11-30T17:07:31.798Z,-1.37
2022-11-30T17:17:38.765Z,-1.36
2022-11-30T17:27:47.106Z,-1.31
2022-11-30T17:37:54.619Z,-1.22
2022-11-30T17:48:01.788Z,-1.14
2022-11-30T17:58:09.134Z,-1.16
2022-11-30T18:08:14.036Z,-1.13
2022-11-30T18:18:21.251Z,-1.01
2022-11-30T18:28:28.888Z,-0.86
2022-11-30T18:38:38.387Z,-0.81
2022-11-30T18:48:44.111Z,-0.80
2022-11-30T18:58:55.616Z,-0.81
2022-11-30T19:19:08.750Z,-0.57
2022-11-30T19:29:17.076Z,-0.54
2022-11-30T19:39:26.056Z,-0.64
2022-11-30T19:49:31.026Z,-0.67
2022-11-30T19:59:40.059Z,-0.59
2022-11-30T20:20:06.480Z,-0.56
2022-11-30T20:30:13.232Z,-0.65
2022-11-30T20:40:20.758Z,-0.68
2022-11-30T20:50:27.166Z,-0.57
2022-11-30T21:00:33.638Z,-0.53
2022-11-30T21:10:39.320Z,-0.54
2022-11-30T21:20:46.333Z,-0.49
2022-11-30T21:30:53.558Z,-0.60
2022-11-30T21:41:02.243Z,-0.63
2022-11-30T21:51:06.976Z,-0.52
2022-11-30T22:01:15.155Z,-0.35
2022-11-30T22:11:23.045Z,-0.18
2022-11-30T22:21:32.394Z,-0.22
2022-11-30T22:31:39.555Z,-0.32
2022-11-30T22:41:54.557Z,-0.39
2022-11-30T22:52:02.742Z,-0.32
2022-11-30T23:02:10.166Z,-0.15
2022-11-30T23:12:36.115Z,-0.01
2022-11-30T23:22:44.736Z,0.04
2022-11-30T23:32:54.777Z,0.02
2022-11-30T23:43:02.000Z,0.05
2022-11-30T23:53:08.079Z,0.17
